Time;durP1;ratioP1;P1;durP2;ratioP2;P2;SDS_P1;SDS_P2;PMS_P1;PMS_P2;Temp;Humidity;BMP_temperature;BMP_pressure;BME280_temperature;BME280_humidity;BME280_pressure;Samples;Min_cycle;Max_cycle;Signal;HPM_P1;HPM_P2
2021/06/11 00:02:00;;;;;;;11.30;5.15;;;18.60;99.90;;;;;;5034802;28;20186;-79
2021/06/11 00:04:25;;;;;;;16.33;5.50;;;18.50;99.90;;;;;;5033233;28;20609;-79
2021/06/11 00:06:51;;;;;;;15.57;5.65;;;18.40;99.90;;;;;;5034525;28;20624;-80
2021/06/11 00:09:17;;;;;;;9.27;4.75;;;18.40;99.90;;;;;;5050291;28;20171;-80
2021/06/11 00:11:45;;;;;;;15.23;6.00;;;18.50;99.90;;;;;;5052300;28;20608;-80
2021/06/11 00:14:11;;;;;;;17.08;5.22;;;18.50;99.90;;;;;;5045343;28;20196;-80
2021/06/11 00:16:37;;;;;;;14.07;6.28;;;18.40;99.90;;;;;;5032828;28;20168;-80
2021/06/11 00:19:03;;;;;;;13.23;5.95;;;18.50;99.90;;;;;;5043184;28;20167;-81
2021/06/11 00:21:29;;;;;;;13.40;5.40;;;18.50;99.90;;;;;;5052656;28;20170;-82
2021/06/11 00:23:54;;;;;;;20.48;6.18;;;18.40;99.90;;;;;;5053933;28;20171;-80
2021/06/11 00:26:20;;;;;;;13.18;5.32;;;18.40;99.90;;;;;;5052017;28;20164;-80
2021/06/11 00:28:46;;;;;;;13.15;4.90;;;18.50;99.90;;;;;;5055647;28;20252;-80
2021/06/11 00:31:12;;;;;;;13.93;5.18;;;18.20;99.90;;;;;;5034210;28;20691;-81
2021/06/11 00:33:37;;;;;;;15.93;5.88;;;18.30;99.90;;;;;;5032640;28;20204;-80
2021/06/11 00:36:03;;;;;;;15.77;5.47;;;18.20;99.90;;;;;;5032527;28;20516;-81
2021/06/11 00:38:31;;;;;;;15.25;6.03;;;18.20;99.90;;;;;;5033867;28;20196;-81
2021/06/11 00:40:57;;;;;;;11.82;5.70;;;18.10;99.90;;;;;;5033720;28;20176;-80
2021/06/11 00:43:22;;;;;;;12.73;5.65;;;18.10;99.90;;;;;;5048894;28;20180;-80
2021/06/11 00:45:48;;;;;;;11.63;5.60;;;18.00;99.90;;;;;;5052878;28;20628;-80
2021/06/11 00:48:14;;;;;;;12.60;5.90;;;18.00;99.90;;;;;;5053978;28;20222;-81
2021/06/11 00:50:39;;;;;;;12.68;5.75;;;17.90;99.90;;;;;;5059214;28;20747;-81
2021/06/11 00:53:10;;;;;;;13.77;5.45;;;17.80;99.90;;;;;;5052137;28;20230;-81
2021/06/11 00:55:37;;;;;;;15.18;5.60;;;17.80;99.90;;;;;;5053222;28;20246;-81
2021/06/11 00:58:03;;;;;;;10.95;5.57;;;17.90;99.90;;;;;;5051664;28;20187;-83
2021/06/11 01:00:30;;;;;;;16.17;5.10;;;17.90;99.90;;;;;;5050384;28;20517;-81
2021/06/11 01:02:55;;;;;;;15.32;6.03;;;18.00;99.90;;;;;;5032248;28;20586;-81
2021/06/11 01:05:21;;;;;;;14.30;5.80;;;17.80;99.90;;;;;;5032185;28;20168;-80
2021/06/11 01:07:51;;;;;;;21.33;6.35;;;17.90;99.90;;;;;;5032476;28;20176;-80
2021/06/11 01:10:17;;;;;;;21.30;6.07;;;17.90;99.90;;;;;;5033143;28;20609;-81
2021/06/11 01:12:45;;;;;;;13.02;5.90;;;17.90;99.90;;;;;;5033181;28;20237;-81
2021/06/11 01:15:12;;;;;;;11.00;4.97;;;17.90;99.90;;;;;;5045524;28;20259;-81
2021/06/11 01:17:38;;;;;;;16.63;5.88;;;17.80;99.90;;;;;;5033256;28;20632;-80
2021/06/11 01:20:15;;;;;;;16.13;5.95;;;17.80;99.90;;;;;;5033365;28;20164;-80
2021/06/11 01:23:08;;;;;;;12.27;5.72;;;17.80;99.90;;;;;;5034056;28;20163;-81
2021/06/11 01:26:11;;;;;;;12.40;5.55;;;17.80;99.90;;;;;;5048837;28;20164;-81
2021/06/11 01:28:38;;;;;;;14.30;5.57;;;17.70;99.90;;;;;;5061230;28;20174;-80
2021/06/11 01:31:05;;;;;;;17.80;5.75;;;17.70;99.90;;;;;;5053377;28;20612;-82
2021/06/11 01:33:32;;;;;;;14.15;5.15;;;17.70;99.90;;;;;;5051462;28;20207;-80
2021/06/11 01:36:09;;;;;;;9.30;4.85;;;17.70;99.90;;;;;;5066833;28;20174;-80
2021/06/11 01:38:39;;;;;;;13.52;5.82;;;17.60;99.90;;;;;;5053264;28;20198;-81
2021/06/11 01:41:08;;;;;;;14.00;5.82;;;17.70;99.90;;;;;;5056988;28;20167;-80
2021/06/11 01:43:36;;;;;;;9.23;5.35;;;17.60;99.90;;;;;;5055503;28;20653;-80
2021/06/11 01:46:02;;;;;;;9.30;4.72;;;17.70;99.90;;;;;;5056897;28;20554;-80
2021/06/11 01:48:29;;;;;;;17.40;4.95;;;17.60;99.90;;;;;;5072609;28;20246;-80
2021/06/11 01:50:57;;;;;;;10.85;4.60;;;17.50;99.90;;;;;;5072316;28;20175;-81
2021/06/11 01:53:24;;;;;;;14.27;4.78;;;17.50;99.90;;;;;;5055087;28;20194;-80
2021/06/11 01:55:50;;;;;;;19.02;5.32;;;17.40;99.90;;;;;;5072179;28;20167;-80
2021/06/11 01:58:17;;;;;;;9.50;5.35;;;17.40;99.90;;;;;;5055396;28;20208;-80
2021/06/11 02:00:44;;;;;;;10.73;5.55;;;17.50;99.90;;;;;;5056192;28;20257;-80
2021/06/11 02:03:11;;;;;;;11.98;5.13;;;17.50;99.90;;;;;;5070487;28;20176;-80
2021/06/11 02:05:38;;;;;;;13.88;4.88;;;17.50;99.90;;;;;;5051640;28;20168;-80
2021/06/11 02:08:05;;;;;;;13.20;5.25;;;17.40;99.90;;;;;;5018840;28;20171;-80
2021/06/11 02:10:31;;;;;;;22.40;5.72;;;17.40;99.90;;;;;;5036830;28;20160;-80
2021/06/11 02:12:58;;;;;;;11.77;4.45;;;17.40;99.90;;;;;;5036606;28;20192;-80
2021/06/11 02:15:26;;;;;;;12.00;5.72;;;17.30;99.90;;;;;;5036327;28;20172;-80
2021/06/11 02:17:52;;;;;;;9.90;5.55;;;17.20;99.90;;;;;;5036267;28;20156;-80
2021/06/11 02:20:21;;;;;;;10.98;4.82;;;17.20;99.90;;;;;;5036373;28;20671;-79
2021/06/11 02:22:50;;;;;;;11.85;5.28;;;17.30;99.90;;;;;;5036328;28;20319;-80
2021/06/11 02:25:19;;;;;;;9.57;4.63;;;17.20;99.90;;;;;;5042777;28;20173;-80
2021/06/11 02:27:46;;;;;;;10.98;5.47;;;17.20;99.90;;;;;;5056655;28;20250;-80
2021/06/11 02:30:14;;;;;;;15.77;5.90;;;17.20;99.90;;;;;;5054604;28;20191;-79
2021/06/11 02:32:40;;;;;;;9.65;5.43;;;17.10;99.90;;;;;;5054549;28;20174;-80
2021/06/11 02:35:09;;;;;;;13.43;4.63;;;17.10;99.90;;;;;;5051698;28;20171;-80
2021/06/11 02:37:36;;;;;;;16.38;6.30;;;17.00;99.90;;;;;;5031443;28;20161;-80
2021/06/11 02:40:03;;;;;;;11.43;5.97;;;17.00;99.90;;;;;;5015168;28;20196;-80
2021/06/11 02:42:30;;;;;;;11.38;5.95;;;16.90;99.90;;;;;;5013177;28;20168;-79
2021/06/11 02:45:10;;;;;;;10.65;5.57;;;16.80;99.90;;;;;;5034828;28;20164;-80
2021/06/11 02:47:43;;;;;;;15.55;6.80;;;16.70;99.90;;;;;;5039544;28;20164;-80
2021/06/11 02:50:16;;;;;;;14.60;6.57;;;16.70;99.90;;;;;;5033431;28;20253;-80
2021/06/11 02:52:52;;;;;;;16.85;7.90;;;16.70;99.90;;;;;;5034601;28;20493;-80
2021/06/11 02:55:21;;;;;;;21.83;7.72;;;16.70;99.90;;;;;;5035864;28;20231;-80
2021/06/11 02:58:03;;;;;;;19.20;8.63;;;16.60;99.90;;;;;;5035468;28;20168;-80
2021/06/11 03:00:30;;;;;;;19.33;8.43;;;16.70;99.90;;;;;;5037500;28;20641;-80
2021/06/11 03:03:27;;;;;;;17.05;8.25;;;16.70;99.90;;;;;;5054204;28;20628;-80
2021/06/11 03:05:56;;;;;;;14.38;8.00;;;16.80;99.90;;;;;;5058603;28;20183;-80
2021/06/11 03:08:24;;;;;;;25.35;8.60;;;16.80;99.90;;;;;;5044595;28;20175;-80
2021/06/11 03:10:54;;;;;;;19.25;7.13;;;16.70;99.90;;;;;;5035321;28;20165;-81
2021/06/11 03:13:22;;;;;;;20.63;7.20;;;16.70;99.90;;;;;;5035542;28;20242;-83
2021/06/11 03:15:49;;;;;;;13.57;7.07;;;16.80;99.90;;;;;;5035377;28;20192;-80
2021/06/11 03:18:36;;;;;;;14.85;7.38;;;16.90;99.90;;;;;;5035315;28;20247;-80
2021/06/11 03:21:17;;;;;;;19.05;9.02;;;16.90;99.90;;;;;;5035385;28;20168;-80
2021/06/11 03:23:57;;;;;;;19.58;8.02;;;16.90;99.90;;;;;;5034129;28;20234;-80
2021/06/11 03:26:34;;;;;;;16.33;8.63;;;16.90;99.90;;;;;;5035441;28;20164;-80
2021/06/11 03:29:02;;;;;;;15.05;7.78;;;16.80;99.90;;;;;;5036185;28;20636;-80
2021/06/11 03:31:39;;;;;;;16.92;8.13;;;16.80;99.90;;;;;;5035121;28;20188;-80
2021/06/11 03:34:08;;;;;;;15.15;6.97;;;16.80;99.90;;;;;;5052111;28;20197;-80
2021/06/11 03:36:40;;;;;;;10.70;5.97;;;16.80;99.90;;;;;;5055305;28;20221;-80
2021/06/11 03:39:08;;;;;;;18.55;6.25;;;16.90;99.90;;;;;;5052003;28;20612;-80
2021/06/11 03:41:37;;;;;;;13.73;6.63;;;16.90;99.90;;;;;;5033098;28;20199;-80
2021/06/11 03:44:07;;;;;;;17.13;6.80;;;16.80;99.90;;;;;;5034588;28;20168;-80
2021/06/11 03:46:36;;;;;;;15.25;6.50;;;16.80;99.90;;;;;;5035218;28;20180;-81
2021/06/11 03:49:02;;;;;;;15.73;6.93;;;16.90;99.90;;;;;;5035042;28;20161;-80
2021/06/11 03:51:29;;;;;;;13.18;6.95;;;16.80;99.90;;;;;;5034652;28;20183;-80
2021/06/11 03:53:56;;;;;;;10.07;6.50;;;16.80;99.90;;;;;;5034675;28;20271;-80
2021/06/11 03:56:24;;;;;;;12.73;6.22;;;16.80;99.90;;;;;;5034681;28;20168;-80
2021/06/11 03:58:51;;;;;;;11.23;6.50;;;16.90;99.90;;;;;;5033322;28;20278;-80
2021/06/11 04:01:26;;;;;;;18.17;7.97;;;16.90;99.90;;;;;;5039062;28;20180;-80
2021/06/11 04:03:54;;;;;;;16.52;7.68;;;16.90;99.90;;;;;;5033324;28;20531;-80
2021/06/11 04:06:25;;;;;;;19.75;7.13;;;16.90;99.90;;;;;;5034363;28;20156;-80
2021/06/11 04:08:54;;;;;;;17.33;7.55;;;17.00;99.90;;;;;;5032970;28;20230;-81
2021/06/11 04:11:29;;;;;;;18.00;8.35;;;17.00;99.90;;;;;;5037011;28;20182;-80
2021/06/11 04:14:00;;;;;;;20.00;7.22;;;17.10;99.90;;;;;;5053060;28;20198;-80
2021/06/11 04:16:43;;;;;;;27.40;6.30;;;17.20;99.90;;;;;;5054327;28;20174;-80
2021/06/11 04:19:27;;;;;;;19.27;8.55;;;17.20;99.90;;;;;;5054175;28;20616;-80
2021/06/11 04:21:55;;;;;;;14.20;7.57;;;17.20;99.90;;;;;;5051304;28;20175;-80
2021/06/11 04:24:30;;;;;;;21.45;7.93;;;17.20;99.90;;;;;;5051505;28;20221;-80
2021/06/11 04:27:00;;;;;;;15.63;7.72;;;17.20;99.90;;;;;;5054069;28;20182;-80
2021/06/11 04:29:30;;;;;;;18.67;7.95;;;17.30;99.90;;;;;;5053700;28;20166;-80
2021/06/11 04:31:56;;;;;;;15.85;8.02;;;17.40;99.90;;;;;;5037480;28;20191;-80
2021/06/11 04:34:24;;;;;;;17.67;8.05;;;17.40;99.90;;;;;;5034789;28;20657;-80
2021/06/11 04:36:50;;;;;;;15.40;8.10;;;17.70;99.90;;;;;;5034016;28;20168;-81
2021/06/11 04:39:16;;;;;;;16.83;7.85;;;18.30;99.90;;;;;;5018643;28;20515;-81
2021/06/11 04:41:50;;;;;;;9.77;6.78;;;19.10;99.90;;;;;;5052487;28;20159;-81
2021/06/11 04:44:16;;;;;;;9.35;6.53;;;19.50;99.90;;;;;;5051930;28;20171;-79
2021/06/11 04:46:41;;;;;;;12.57;7.38;;;20.30;99.90;;;;;;5053584;28;20233;-81
2021/06/11 04:49:07;;;;;;;7.05;6.25;;;21.30;99.90;;;;;;5068908;28;20163;-81
2021/06/11 04:51:35;;;;;;;7.65;5.70;;;22.40;99.90;;;;;;5053600;28;20540;-81
2021/06/11 04:54:01;;;;;;;12.52;5.18;;;23.50;99.90;;;;;;5051892;28;20245;-82
2021/06/11 04:56:27;;;;;;;25.77;6.65;;;24.20;99.90;;;;;;5068991;28;20172;-81
2021/06/11 04:58:54;;;;;;;7.53;5.45;;;24.80;99.90;;;;;;5051899;28;20167;-81
2021/06/11 05:01:21;;;;;;;13.57;6.57;;;25.30;99.90;;;;;;5052891;28;20179;-81
2021/06/11 05:03:46;;;;;;;13.07;5.57;;;25.90;99.90;;;;;;5036649;28;20617;-81
2021/06/11 05:06:12;;;;;;;9.15;5.22;;;26.40;99.90;;;;;;5033489;28;20255;-82
2021/06/11 05:08:38;;;;;;;10.27;5.78;;;26.90;99.90;;;;;;5015943;28;20198;-81
2021/06/11 05:11:03;;;;;;;9.27;5.47;;;27.40;99.90;;;;;;5033200;28;20171;-81
2021/06/11 05:13:30;;;;;;;14.75;5.72;;;27.70;99.90;;;;;;5040806;28;20777;-81
2021/06/11 05:15:55;;;;;;;9.55;4.78;;;27.90;99.90;;;;;;5053133;28;20163;-81
2021/06/11 05:18:25;;;;;;;5.00;4.43;;;28.30;99.90;;;;;;5053228;28;20167;-81
2021/06/11 05:20:51;;;;;;;7.43;4.60;;;28.50;99.90;;;;;;5053276;28;20167;-82
2021/06/11 05:23:18;;;;;;;17.02;4.43;;;28.80;99.90;;;;;;5051473;28;20250;-80
2021/06/11 05:25:45;;;;;;;4.20;3.80;;;29.10;99.90;;;;;;5053104;28;20175;-80
2021/06/11 05:28:11;;;;;;;6.28;3.85;;;29.20;99.90;;;;;;5053140;28;20183;-79
2021/06/11 05:30:36;;;;;;;7.95;4.00;;;29.20;99.90;;;;;;5060331;28;20213;-81
2021/06/11 05:33:03;;;;;;;7.97;4.00;;;29.10;99.90;;;;;;5059046;28;20265;-82
2021/06/11 05:35:30;;;;;;;5.68;3.53;;;29.60;99.90;;;;;;5050236;28;20615;-82
2021/06/11 05:38:02;;;;;;;3.40;3.10;;;30.10;99.90;;;;;;5052991;28;20624;-82
2021/06/11 05:40:28;;;;;;;5.78;2.75;;;30.90;99.90;;;;;;5051586;28;20189;-80
2021/06/11 05:42:53;;;;;;;3.80;2.97;;;31.20;99.90;;;;;;5052611;28;20182;-80
2021/06/11 05:45:19;;;;;;;2.97;2.70;;;31.40;99.90;;;;;;5046206;28;20179;-79
2021/06/11 05:47:45;;;;;;;7.20;3.08;;;31.70;99.90;;;;;;5033427;28;20171;-79
2021/06/11 05:50:11;;;;;;;3.50;2.60;;;31.50;99.90;;;;;;5033130;28;20160;-79
2021/06/11 05:52:36;;;;;;;4.40;2.90;;;31.40;99.90;;;;;;5036278;28;20506;-79
2021/06/11 05:55:06;;;;;;;6.25;2.90;;;31.50;99.90;;;;;;5051520;28;20195;-80
2021/06/11 05:57:32;;;;;;;3.75;2.75;;;31.20;99.90;;;;;;5048998;28;20507;-80
2021/06/11 05:59:58;;;;;;;4.63;3.00;;;30.90;99.90;;;;;;5047374;28;20263;-80
2021/06/11 06:02:24;;;;;;;4.68;3.00;;;31.00;99.90;;;;;;5053137;28;20179;-79
2021/06/11 06:04:50;;;;;;;2.72;2.53;;;31.40;99.90;;;;;;5053203;28;20182;-80
2021/06/11 06:07:16;;;;;;;3.20;2.30;;;31.80;99.90;;;;;;5051122;28;20246;-80
2021/06/11 06:09:43;;;;;;;3.50;2.05;;;32.30;99.90;;;;;;5051214;28;20179;-82
2021/06/11 06:12:10;;;;;;;7.05;1.88;;;32.70;99.90;;;;;;5032707;28;20636;-80
2021/06/11 06:14:36;;;;;;;5.93;2.20;;;33.50;99.90;;;;;;5032827;28;20195;-82
2021/06/11 06:17:01;;;;;;;4.68;2.13;;;33.20;99.90;;;;;;5036289;28;20176;-79
2021/06/11 06:19:27;;;;;;;3.28;2.20;;;32.70;99.90;;;;;;5052771;28;20166;-80
2021/06/11 06:21:53;;;;;;;4.22;2.13;;;32.70;99.90;;;;;;5052436;28;20166;-79
2021/06/11 06:24:18;;;;;;;5.35;2.63;;;32.60;99.90;;;;;;5052604;28;20167;-80
2021/06/11 06:26:45;;;;;;;3.10;2.03;;;32.90;99.90;;;;;;5055878;28;20182;-80
2021/06/11 06:29:10;;;;;;;3.97;2.20;;;32.90;99.90;;;;;;5038970;28;20262;-80
2021/06/11 06:31:36;;;;;;;2.70;2.17;;;33.10;99.90;;;;;;5054181;28;20261;-82
2021/06/11 06:34:02;;;;;;;7.90;2.10;;;33.50;98.80;;;;;;5037426;28;20210;-79
2021/06/11 06:36:28;;;;;;;2.95;1.83;;;33.50;99.10;;;;;;5035932;28;20175;-80
2021/06/11 06:38:57;;;;;;;3.60;2.15;;;33.80;98.20;;;;;;5052590;28;20171;-82
2021/06/11 06:41:22;;;;;;;2.58;2.33;;;34.70;98.20;;;;;;5051229;28;20179;-80
2021/06/11 06:43:48;;;;;;;3.03;2.08;;;34.90;97.40;;;;;;5035060;28;20172;-80
2021/06/11 06:46:22;;;;;;;8.57;2.17;;;34.40;97.30;;;;;;5036145;28;20184;-79
2021/06/11 06:48:48;;;;;;;1.98;1.67;;;34.50;97.20;;;;;;5038635;28;20175;-78
2021/06/11 06:51:14;;;;;;;4.43;1.98;;;34.40;97.00;;;;;;5055619;28;20213;-80
2021/06/11 06:53:40;;;;;;;5.03;2.00;;;34.40;96.90;;;;;;5070992;28;20601;-80
2021/06/11 06:56:06;;;;;;;6.13;2.28;;;34.20;97.40;;;;;;5055636;28;20191;-80
2021/06/11 06:58:31;;;;;;;2.10;1.95;;;34.80;97.30;;;;;;5055844;28;20167;-80
2021/06/11 07:00:57;;;;;;;5.57;2.00;;;35.90;95.40;;;;;;5053656;28;20175;-79
2021/06/11 07:03:23;;;;;;;6.57;1.83;;;37.30;93.40;;;;;;5055452;28;20216;-79
2021/06/11 07:05:49;;;;;;;2.85;1.65;;;38.00;91.30;;;;;;5054148;28;20167;-79
2021/06/11 07:08:14;;;;;;;3.00;1.90;;;37.90;91.20;;;;;;5042030;28;20160;-79
2021/06/11 07:10:40;;;;;;;2.72;1.73;;;38.20;91.90;;;;;;5036374;28;20701;-80
2021/06/11 07:13:06;;;;;;;2.42;1.77;;;39.10;89.50;;;;;;5035623;28;20227;-80
2021/06/11 07:15:32;;;;;;;1.50;1.40;;;38.70;89.80;;;;;;5035356;28;20164;-79
2021/06/11 07:17:58;;;;;;;4.18;1.77;;;38.40;90.20;;;;;;5034787;28;20422;-78
2021/06/11 07:20:24;;;;;;;2.65;1.60;;;38.00;90.30;;;;;;5033581;28;20894;-78
2021/06/11 07:22:50;;;;;;;4.13;1.60;;;37.60;90.60;;;;;;5035426;28;20504;-78
2021/06/11 07:25:15;;;;;;;2.28;1.33;;;37.30;90.80;;;;;;5035277;28;20525;-79
2021/06/11 07:27:41;;;;;;;8.10;1.67;;;37.50;90.70;;;;;;5035510;28;20163;-79
2021/06/11 07:30:10;;;;;;;8.57;1.63;;;37.70;89.40;;;;;;5035200;28;20257;-79
2021/06/11 07:32:36;;;;;;;1.52;1.40;;;37.90;88.20;;;;;;5044962;28;20163;-79
2021/06/11 07:35:02;;;;;;;5.32;1.40;;;38.40;86.80;;;;;;5070208;28;20211;-78
2021/06/11 07:37:28;;;;;;;4.18;1.80;;;38.70;85.50;;;;;;5054689;28;20167;-78
2021/06/11 07:39:54;;;;;;;1.40;1.30;;;38.80;86.20;;;;;;5070156;28;20167;-84
2021/06/11 07:42:20;;;;;;;1.63;1.52;;;39.10;85.30;;;;;;5052974;28;20190;-78
2021/06/11 07:44:46;;;;;;;4.50;1.42;;;40.00;83.60;;;;;;5054773;28;20170;-79
2021/06/11 07:47:11;;;;;;;3.67;1.45;;;40.30;81.70;;;;;;5054834;28;20167;-79
2021/06/11 07:49:42;;;;;;;1.08;0.95;;;41.00;80.00;;;;;;5054630;28;20167;-80
2021/06/11 07:52:13;;;;;;;1.60;1.08;;;41.70;82.80;;;;;;5054693;28;20162;-81
2021/06/11 07:54:39;;;;;;;1.20;1.10;;;42.40;79.60;;;;;;5040006;28;20202;-79
2021/06/11 07:57:06;;;;;;;3.58;0.93;;;42.90;76.10;;;;;;5049941;28;20258;-80
2021/06/11 07:59:31;;;;;;;6.68;1.33;;;42.50;74.20;;;;;;5034484;28;20263;-80
2021/06/11 08:01:57;;;;;;;1.42;0.95;;;42.20;75.20;;;;;;5032919;28;20263;-79
2021/06/11 08:04:22;;;;;;;2.55;1.15;;;41.30;77.40;;;;;;5040150;28;20181;-78
2021/06/11 08:06:48;;;;;;;1.42;1.13;;;41.40;77.40;;;;;;5054196;28;20179;-78
2021/06/11 08:09:17;;;;;;;3.53;1.30;;;41.30;76.30;;;;;;5053810;28;20229;-79
2021/06/11 08:11:42;;;;;;;6.25;1.40;;;40.90;78.20;;;;;;5040764;28;20160;-79
2021/06/11 08:14:08;;;;;;;14.57;2.13;;;40.50;77.50;;;;;;5032062;28;20257;-79
2021/06/11 08:16:34;;;;;;;1.42;1.17;;;39.40;80.40;;;;;;5033392;28;20326;-79
2021/06/11 08:18:59;;;;;;;1.08;1.00;;;39.50;80.50;;;;;;5033007;28;20236;-79
2021/06/11 08:21:25;;;;;;;5.55;1.10;;;41.00;79.10;;;;;;5033762;28;20562;-78
2021/06/11 08:23:51;;;;;;;4.07;1.10;;;39.90;78.10;;;;;;5034202;28;20187;-78
2021/06/11 08:26:17;;;;;;;1.48;1.10;;;40.00;81.00;;;;;;5074485;28;20173;-77
2021/06/11 08:28:43;;;;;;;5.25;1.00;;;41.00;77.40;;;;;;5053733;28;20504;-78
2021/06/11 08:31:09;;;;;;;1.40;1.00;;;40.50;78.50;;;;;;5054229;28;20178;-79
2021/06/11 08:33:34;;;;;;;0.75;0.70;;;40.70;78.40;;;;;;5056270;28;20207;-79
2021/06/11 08:36:00;;;;;;;3.33;0.90;;;40.00;78.70;;;;;;5017222;28;20248;-78
2021/06/11 08:38:26;;;;;;;31.48;3.95;;;39.80;78.40;;;;;;5038763;28;20612;-79
2021/06/11 08:40:52;;;;;;;2.20;0.98;;;40.60;78.20;;;;;;5054744;28;20187;-79
2021/06/11 08:43:19;;;;;;;3.53;0.85;;;41.70;75.80;;;;;;5051149;28;20225;-78
2021/06/11 08:45:47;;;;;;;0.57;0.57;;;42.20;75.00;;;;;;5033515;28;20167;-80
2021/06/11 08:48:13;;;;;;;0.75;0.70;;;42.30;74.60;;;;;;5051450;28;20171;-79
2021/06/11 08:50:41;;;;;;;2.67;1.10;;;42.00;73.10;;;;;;5038056;28;20259;-79
2021/06/11 08:53:08;;;;;;;3.22;1.25;;;42.40;72.40;;;;;;5048962;28;20211;-78
2021/06/11 08:55:35;;;;;;;3.72;1.30;;;43.30;71.80;;;;;;5051515;28;20582;-79
2021/06/11 08:58:02;;;;;;;2.45;0.90;;;43.00;72.90;;;;;;5051848;28;20159;-78
2021/06/11 09:00:28;;;;;;;1.00;1.00;;;41.80;75.50;;;;;;5053530;28;20167;-78
2021/06/11 09:03:24;;;;;;;1.23;1.13;;;42.30;74.60;;;;;;5050342;28;20610;-79
2021/06/11 09:06:05;;;;;;;1.92;1.05;;;41.90;74.80;;;;;;5033487;28;20570;-78
2021/06/11 09:08:32;;;;;;;2.30;1.00;;;40.90;75.00;;;;;;5031695;28;20611;-78
2021/06/11 09:11:19;;;;;;;3.97;1.10;;;40.70;77.70;;;;;;5031877;28;20171;-82
2021/06/11 09:13:48;;;;;;;1.00;1.00;;;41.40;77.40;;;;;;5033009;28;20317;-79
2021/06/11 09:16:17;;;;;;;1.25;1.15;;;42.60;72.80;;;;;;5033506;28;20171;-79
2021/06/11 09:18:45;;;;;;;1.58;1.27;;;42.40;72.70;;;;;;5032998;28;20176;-79
2021/06/11 09:21:32;;;;;;;1.30;1.20;;;42.00;72.90;;;;;;5063926;28;20672;-81
2021/06/11 09:24:27;;;;;;;9.40;2.10;;;41.80;72.10;;;;;;5051089;28;20217;-80
2021/06/11 09:27:00;;;;;;;1.20;1.02;;;41.90;73.80;;;;;;5053269;28;20162;-79
2021/06/11 09:29:35;;;;;;;1.48;1.20;;;41.30;74.60;;;;;;5053417;28;20241;-80
2021/06/11 09:32:23;;;;;;;2.10;1.20;;;42.10;73.30;;;;;;5053157;28;20175;-80
2021/06/11 09:35:00;;;;;;;1.40;1.30;;;43.40;72.40;;;;;;5051537;28;20507;-79
2021/06/11 09:37:30;;;;;;;1.50;1.40;;;43.30;69.90;;;;;;5051817;28;20174;-79
2021/06/11 09:40:00;;;;;;;2.17;1.98;;;42.80;71.60;;;;;;5051814;28;20558;-79
2021/06/11 09:42:28;;;;;;;4.03;1.60;;;42.80;70.20;;;;;;5068302;28;20275;-79
2021/06/11 09:44:57;;;;;;;0.95;0.95;;;43.10;70.70;;;;;;5052839;28;20183;-79
2021/06/11 09:47:31;;;;;;;5.30;1.48;;;44.00;68.60;;;;;;5033339;28;20604;-80
2021/06/11 09:50:04;;;;;;;1.10;1.10;;;43.40;67.30;;;;;;5044879;28;20170;-80
2021/06/11 09:52:34;;;;;;;4.15;1.10;;;43.70;68.30;;;;;;5052433;28;20519;-83
2021/06/11 09:55:04;;;;;;;2.35;1.20;;;43.90;67.70;;;;;;5067878;28;20187;-82
2021/06/11 09:57:33;;;;;;;0.98;0.98;;;44.10;67.20;;;;;;5051380;28;20183;-82
2021/06/11 10:00:00;;;;;;;0.90;0.90;;;44.10;65.90;;;;;;5070551;28;20171;-85
2021/06/11 10:02:29;;;;;;;1.98;1.00;;;43.40;66.10;;;;;;5056518;28;20472;-81
2021/06/11 10:04:55;;;;;;;4.03;0.90;;;43.20;68.00;;;;;;5056611;28;20175;-82
2021/06/11 10:07:21;;;;;;;1.33;1.23;;;43.20;68.40;;;;;;5054944;28;20229;-81
2021/06/11 10:09:47;;;;;;;3.55;1.50;;;42.20;69.10;;;;;;5056112;28;20167;-81
2021/06/11 10:12:13;;;;;;;3.13;1.50;;;42.60;69.70;;;;;;5072148;28;20499;-82
2021/06/11 10:14:39;;;;;;;3.13;1.50;;;43.30;68.40;;;;;;5055432;28;20202;-83
2021/06/11 10:17:08;;;;;;;1.17;1.05;;;42.50;68.70;;;;;;5044164;28;20225;-80
2021/06/11 10:19:37;;;;;;;1.15;1.05;;;41.20;71.40;;;;;;5035478;28;20616;-80
2021/06/11 10:22:05;;;;;;;4.57;1.15;;;40.70;74.40;;;;;;5036386;28;20172;-81
2021/06/11 10:24:32;;;;;;;1.73;0.70;;;40.80;72.30;;;;;;5035028;28;20175;-80
2021/06/11 10:26:58;;;;;;;1.75;0.80;;;39.80;74.20;;;;;;5035346;28;20201;-80
2021/06/11 10:29:24;;;;;;;0.50;0.50;;;40.70;72.30;;;;;;5036467;28;20508;-81
2021/06/11 10:31:50;;;;;;;0.65;0.65;;;41.10;70.10;;;;;;5036398;28;20656;-80
2021/06/11 10:34:16;;;;;;;0.95;0.60;;;40.90;71.10;;;;;;5034874;28;20679;-80
2021/06/11 10:36:44;;;;;;;7.07;0.77;;;40.90;71.20;;;;;;5034876;28;20164;-80
2021/06/11 10:39:09;;;;;;;0.50;0.50;;;40.90;72.60;;;;;;5035724;28;20605;-79
2021/06/11 10:42:04;;;;;;;1.92;0.88;;;42.10;71.10;;;;;;5036190;28;20174;-80
2021/06/11 10:44:34;;;;;;;1.10;0.90;;;41.70;69.60;;;;;;5033333;28;20650;-81
2021/06/11 10:47:15;;;;;;;0.80;0.80;;;41.30;71.10;;;;;;5046899;28;20203;-81
2021/06/11 10:49:59;;;;;;;1.08;0.70;;;40.90;75.20;;;;;;5049199;28;20163;-82
2021/06/11 10:52:49;;;;;;;0.50;0.50;;;40.00;73.90;;;;;;5035736;28;20623;-83
2021/06/11 10:55:15;;;;;;;0.90;0.88;;;39.70;72.40;;;;;;5034560;28;20256;-80
2021/06/11 10:57:42;;;;;;;1.10;1.00;;;39.50;73.50;;;;;;5050929;28;20624;-80
2021/06/11 11:00:35;;;;;;;1.40;1.10;;;39.50;72.30;;;;;;5035627;28;20177;-78
2021/06/11 11:03:03;;;;;;;3.80;1.85;;;39.80;72.80;;;;;;5027732;28;20215;-78
2021/06/11 11:05:34;;;;;;;1.77;1.33;;;40.10;74.00;;;;;;5035669;28;20163;-81
2021/06/11 11:08:02;;;;;;;2.53;1.23;;;40.80;73.10;;;;;;5035798;28;20168;-81
2021/06/11 11:10:40;;;;;;;3.20;1.08;;;41.00;71.50;;;;;;5034820;28;20654;-80
2021/06/11 11:13:15;;;;;;;0.90;0.90;;;40.40;73.40;;;;;;5031167;28;20168;-81
2021/06/11 11:15:45;;;;;;;0.95;0.95;;;40.70;70.80;;;;;;5015893;28;20168;-81
2021/06/11 11:18:38;;;;;;;2.42;1.08;;;42.00;70.20;;;;;;5016334;28;20161;-82
2021/06/11 11:21:23;;;;;;;2.67;0.70;;;42.10;68.70;;;;;;5053345;28;20244;-81
2021/06/11 11:23:54;;;;;;;1.17;0.68;;;41.30;69.20;;;;;;5055378;28;20159;-81
2021/06/11 11:26:47;;;;;;;4.70;0.98;;;41.50;70.80;;;;;;5055603;28;20159;-80
2021/06/11 11:29:14;;;;;;;1.38;1.27;;;41.10;70.60;;;;;;5068101;28;20159;-84
2021/06/11 11:31:42;;;;;;;2.53;1.30;;;41.20;71.10;;;;;;5031384;28;20183;-82
2021/06/11 11:34:08;;;;;;;2.38;1.30;;;40.90;70.50;;;;;;5050747;28;20198;-81
2021/06/11 11:36:35;;;;;;;3.63;0.90;;;40.70;73.20;;;;;;5054806;28;20167;-81
2021/06/11 11:39:05;;;;;;;2.55;1.60;;;41.00;70.90;;;;;;5054396;28;20693;-81
2021/06/11 11:41:31;;;;;;;2.15;1.20;;;41.40;70.00;;;;;;5047712;28;20647;-82
2021/06/11 11:43:56;;;;;;;5.22;1.60;;;40.60;72.10;;;;;;5036085;28;20179;-84
2021/06/11 11:46:22;;;;;;;1.48;1.10;;;40.60;71.60;;;;;;5034605;28;20163;-85
2021/06/11 11:48:48;;;;;;;3.72;1.00;;;40.70;70.50;;;;;;5042300;28;20159;-85
2021/06/11 11:51:14;;;;;;;2.30;1.20;;;40.20;70.30;;;;;;5066986;28;20232;-85
2021/06/11 11:53:40;;;;;;;1.55;1.20;;;39.90;71.20;;;;;;5035216;28;20195;-85
2021/06/11 11:56:06;;;;;;;1.73;0.95;;;40.00;71.60;;;;;;5034386;28;20494;-85
2021/06/11 11:58:32;;;;;;;0.90;0.90;;;39.80;73.40;;;;;;5034459;28;20213;-85
2021/06/11 12:00:58;;;;;;;8.80;1.90;;;39.10;73.00;;;;;;5033891;28;20171;-87
2021/06/11 12:03:23;;;;;;;1.50;1.20;;;39.00;72.20;;;;;;5034890;28;20666;-87
2021/06/11 12:05:49;;;;;;;1.85;0.90;;;39.40;75.30;;;;;;5035541;28;20176;-87
2021/06/11 12:08:14;;;;;;;4.55;1.38;;;38.60;73.90;;;;;;5034224;28;20630;-84
2021/06/11 12:10:40;;;;;;;0.95;0.95;;;37.00;79.00;;;;;;5034103;28;20599;-86
2021/06/11 12:13:06;;;;;;;1.15;0.90;;;37.40;77.40;;;;;;5051798;28;20167;-86
2021/06/11 12:15:31;;;;;;;1.30;0.90;;;37.90;76.70;;;;;;5067551;28;20182;-85
2021/06/11 12:17:57;;;;;;;1.75;1.10;;;37.30;79.40;;;;;;5053409;28;20300;-84
2021/06/11 12:20:23;;;;;;;0.65;0.60;;;35.30;81.40;;;;;;5034228;28;20502;-84
2021/06/11 12:22:49;;;;;;;2.80;0.90;;;33.50;86.70;;;;;;5032832;28;20168;-86
2021/06/11 12:25:15;;;;;;;2.28;0.90;;;32.50;86.50;;;;;;5033758;28;20174;-86
2021/06/11 12:27:40;;;;;;;1.15;0.80;;;32.00;86.20;;;;;;5034333;28;20262;-86
2021/06/11 12:30:07;;;;;;;0.88;0.88;;;31.40;89.70;;;;;;5046312;28;20187;-84
2021/06/11 12:32:32;;;;;;;0.98;0.80;;;31.20;90.20;;;;;;5053922;28;20208;-84
2021/06/11 12:34:58;;;;;;;3.45;0.73;;;30.80;88.30;;;;;;5052877;28;20578;-86
2021/06/11 12:37:24;;;;;;;1.35;0.73;;;30.60;87.50;;;;;;5066083;28;20181;-86
2021/06/11 12:39:52;;;;;;;1.92;1.00;;;30.60;88.50;;;;;;5052457;28;20171;-85
2021/06/11 12:42:26;;;;;;;2.72;1.05;;;30.60;91.40;;;;;;5041503;28;20168;-85
2021/06/11 12:44:52;;;;;;;1.55;1.15;;;30.60;92.40;;;;;;5034031;28;20257;-85
2021/06/11 12:47:17;;;;;;;3.40;1.23;;;30.30;91.90;;;;;;5033774;28;20199;-85
2021/06/11 12:49:43;;;;;;;3.17;1.50;;;30.00;92.00;;;;;;5033951;28;20164;-87
2021/06/11 12:52:09;;;;;;;1.77;1.10;;;29.70;92.90;;;;;;5034006;28;20163;-87